createdAt,value
2022-12-06T00:01:29.044Z,5.90
2022-12-06T00:03:57.817Z,4.70
2022-12-06T00:06:26.055Z,5.10
2022-12-06T00:08:53.379Z,6.93
2022-12-06T00:11:28.045Z,7.53
2022-12-06T00:13:56.762Z,6.15
2022-12-06T00:16:24.242Z,8.63
2022-12-06T00:18:51.504Z,7.07
2022-12-06T00:21:29.433Z,3.97
2022-12-06T00:24:04.650Z,3.95
2022-12-06T00:26:32.305Z,4.07
2022-12-06T00:29:00.151Z,4.75
2022-12-06T00:31:28.612Z,4.68
2022-12-06T00:33:56.049Z,4.05
2022-12-06T00:36:30.181Z,4.68
2022-12-06T00:39:00.010Z,6.20
2022-12-06T00:41:27.620Z,6.53
2022-12-06T00:43:54.841Z,2.85
2022-12-06T00:46:24.374Z,2.72
2022-12-06T00:48:52.024Z,6.80
2022-12-06T00:51:19.967Z,3.03
2022-12-06T00:53:47.313Z,3.58
2022-12-06T00:56:14.685Z,3.22
2022-12-06T00:58:42.015Z,3.90
2022-12-06T01:01:17.257Z,4.07
2022-12-06T01:03:44.958Z,3.60
2022-12-06T01:06:15.274Z,4.18
2022-12-06T01:08:42.654Z,3.50
2022-12-06T01:11:10.117Z,3.25
2022-12-06T01:13:37.299Z,3.65
2022-12-06T01:16:09.239Z,3.70
2022-12-06T01:18:36.543Z,5.05
2022-12-06T01:21:21.691Z,2.72
2022-12-06T01:23:49.198Z,3.22
2022-12-06T01:26:18.224Z,2.72
2022-12-06T01:28:45.533Z,2.75
2022-12-06T01:31:13.138Z,3.20
2022-12-06T01:33:40.351Z,4.22
2022-12-06T01:36:07.612Z,5.32
2022-12-06T01:38:34.747Z,3.47
2022-12-06T01:41:01.759Z,4.25
2022-12-06T01:43:33.572Z,3.47
2022-12-06T01:46:09.277Z,3.85
2022-12-06T01:48:36.441Z,6.35
2022-12-06T01:51:03.851Z,7.82
2022-12-06T01:53:31.082Z,5.50
2022-12-06T01:55:58.133Z,4.50
2022-12-06T01:58:31.455Z,9.30
2022-12-06T02:00:58.557Z,6.68
2022-12-06T02:03:27.576Z,3.67
2022-12-06T02:05:55.995Z,2.65
2022-12-06T02:08:23.126Z,6.40
2022-12-06T02:10:50.174Z,4.20
2022-12-06T02:13:17.260Z,2.80
2022-12-06T02:16:05.826Z,3.22
2022-12-06T02:18:34.966Z,3.20
2022-12-06T02:21:11.635Z,2.40
2022-12-06T02:24:08.518Z,4.90
2022-12-06T02:26:46.090Z,5.82
2022-12-06T02:29:22.094Z,3.05
2022-12-06T02:31:50.967Z,4.78
2022-12-06T02:34:23.657Z,2.83
2022-12-06T02:37:09.551Z,3.22
2022-12-06T02:39:56.156Z,6.07
2022-12-06T02:42:29.295Z,9.27
2022-12-06T02:44:58.673Z,5.30
2022-12-06T02:47:27.804Z,5.57
2022-12-06T02:49:55.148Z,3.42
2022-12-06T02:52:24.304Z,6.57
2022-12-06T02:54:51.737Z,2.83
2022-12-06T02:57:20.033Z,4.03
2022-12-06T02:59:53.870Z,3.38
2022-12-06T03:02:21.568Z,3.25
2022-12-06T03:05:11.045Z,2.58
2022-12-06T03:07:43.063Z,2.03
2022-12-06T03:10:17.602Z,3.08
2022-12-06T03:12:47.768Z,2.17
2022-12-06T03:15:34.987Z,6.30
2022-12-06T03:18:42.654Z,6.30
2022-12-06T03:21:15.729Z,4.97
2022-12-06T03:23:44.727Z,4.70
2022-12-06T03:26:13.638Z,5.78
2022-12-06T03:28:41.690Z,3.90
2022-12-06T03:31:12.929Z,3.38
2022-12-06T03:33:49.210Z,3.35
2022-12-06T03:36:16.332Z,3.33
2022-12-06T03:39:03.356Z,3.33
2022-12-06T03:41:35.619Z,5.57
2022-12-06T03:44:02.789Z,2.03
2022-12-06T03:46:41.349Z,4.00
2022-12-06T03:49:20.680Z,3.00
2022-12-06T03:51:48.498Z,3.72
2022-12-06T03:54:16.228Z,2.83
2022-12-06T03:56:43.519Z,2.50
2022-12-06T03:59:10.774Z,2.25
2022-12-06T04:01:38.910Z,2.38
2022-12-06T04:04:06.063Z,1.25
2022-12-06T04:06:33.286Z,3.35
2022-12-06T04:09:19.257Z,1.58
2022-12-06T04:11:46.501Z,2.42
2022-12-06T04:14:13.728Z,1.92
2022-12-06T04:16:59.284Z,1.45
2022-12-06T04:19:26.373Z,1.75
2022-12-06T04:22:11.863Z,1.52
2022-12-06T04:24:38.996Z,1.25
2022-12-06T04:27:25.172Z,1.15
2022-12-06T04:30:10.883Z,1.48
2022-12-06T04:32:56.499Z,5.78
2022-12-06T04:35:41.870Z,3.10
2022-12-06T04:38:27.456Z,2.17
2022-12-06T04:40:54.586Z,1.50
2022-12-06T04:43:40.547Z,1.17
2022-12-06T04:46:08.812Z,3.08
2022-12-06T04:48:35.866Z,1.83
2022-12-06T04:51:02.933Z,1.92
2022-12-06T04:53:29.970Z,3.20
2022-12-06T04:55:57.286Z,2.30
2022-12-06T04:58:24.558Z,2.45
2022-12-06T05:00:52.644Z,2.78
2022-12-06T05:03:19.785Z,2.67
2022-12-06T05:05:47.096Z,1.08
2022-12-06T05:08:14.174Z,2.10
2022-12-06T05:10:41.436Z,2.90
2022-12-06T05:13:10.423Z,2.67
2022-12-06T05:15:37.561Z,4.45
2022-12-06T05:18:04.559Z,2.10
2022-12-06T05:20:31.625Z,1.35
2022-12-06T05:22:58.572Z,1.45
2022-12-06T05:25:25.779Z,1.20
2022-12-06T05:27:55.673Z,1.67
2022-12-06T05:30:22.862Z,1.75
2022-12-06T05:32:55.434Z,2.60
2022-12-06T05:35:24.155Z,4.00
2022-12-06T05:37:51.191Z,3.38
2022-12-06T05:40:18.286Z,5.78
2022-12-06T05:42:45.344Z,2.80
2022-12-06T05:45:12.429Z,4.15
2022-12-06T05:47:39.982Z,2.97
2022-12-06T05:50:08.364Z,2.22
2022-12-06T05:52:35.343Z,2.15
2022-12-06T05:55:02.504Z,2.05
2022-12-06T05:57:29.616Z,3.88
2022-12-06T05:59:56.843Z,2.72
2022-12-06T06:02:24.138Z,4.60
2022-12-06T06:04:51.411Z,3.40
2022-12-06T06:07:18.824Z,3.10
2022-12-06T06:09:45.960Z,2.72
2022-12-06T06:12:13.919Z,1.95
2022-12-06T06:14:40.978Z,2.67
2022-12-06T06:17:08.023Z,3.47
2022-12-06T06:19:35.091Z,5.03
2022-12-06T06:22:02.162Z,4.50
2022-12-06T06:24:35.456Z,5.05
2022-12-06T06:27:03.463Z,2.33
2022-12-06T06:29:30.773Z,3.92
2022-12-06T06:31:58.670Z,4.32
2022-12-06T06:34:26.054Z,3.08
2022-12-06T06:36:53.106Z,2.50
2022-12-06T06:39:20.191Z,4.82
2022-12-06T06:41:47.207Z,4.65
2022-12-06T06:44:14.371Z,2.35
2022-12-06T06:46:41.446Z,5.70
2022-12-06T06:49:08.852Z,6.55
2022-12-06T06:51:35.851Z,2.17
2022-12-06T06:54:03.014Z,2.45
2022-12-06T06:56:30.101Z,3.20
2022-12-06T06:58:57.113Z,2.58
2022-12-06T07:01:25.251Z,1.98
2022-12-06T07:03:52.395Z,4.72
2022-12-06T07:06:19.516Z,3.13
2022-12-06T07:08:46.785Z,3.55
2022-12-06T07:11:14.186Z,3.25
2022-12-06T07:13:42.151Z,2.58
2022-12-06T07:16:13.467Z,4.90
2022-12-06T07:18:40.542Z,5.55
2022-12-06T07:21:08.223Z,6.80
2022-12-06T07:23:35.649Z,5.22
2022-12-06T07:26:07.481Z,7.55
2022-12-06T07:28:38.526Z,8.98
2022-12-06T07:31:16.417Z,8.13
2022-12-06T07:33:44.059Z,8.43
2022-12-06T07:36:12.914Z,8.25
2022-12-06T07:38:41.569Z,11.45
2022-12-06T07:41:33.607Z,13.77
2022-12-06T07:44:19.853Z,12.75
2022-12-06T07:46:47.245Z,10.75
2022-12-06T07:49:15.795Z,12.20
2022-12-06T07:51:43.913Z,8.82
2022-12-06T07:54:10.979Z,14.13
2022-12-06T07:56:38.036Z,7.82
2022-12-06T07:59:05.248Z,8.93
2022-12-06T08:01:32.532Z,6.00
2022-12-06T08:04:00.987Z,6.35
2022-12-06T08:06:28.162Z,8.48
2022-12-06T08:08:55.208Z,8.48
2022-12-06T08:11:22.889Z,5.10
2022-12-06T08:13:50.434Z,6.15
2022-12-06T08:16:17.760Z,7.18
2022-12-06T08:18:44.927Z,7.85
2022-12-06T08:21:12.073Z,8.50
2022-12-06T08:23:39.272Z,6.20
2022-12-06T08:26:08.959Z,5.57
2022-12-06T08:28:36.747Z,5.40
2022-12-06T08:31:08.135Z,5.13
2022-12-06T08:33:35.522Z,8.10
2022-12-06T08:36:10.414Z,8.07
2022-12-06T08:38:37.917Z,5.13
2022-12-06T08:41:05.740Z,7.55
2022-12-06T08:43:32.877Z,6.88
2022-12-06T08:46:00.197Z,7.38
2022-12-06T08:48:27.558Z,8.25
2022-12-06T08:50:54.706Z,8.20
2022-12-06T08:53:21.765Z,8.15
2022-12-06T08:56:02.009Z,4.72
2022-12-06T08:58:29.815Z,5.93
2022-12-06T09:00:57.011Z,10.38
2022-12-06T09:03:24.246Z,8.82
2022-12-06T09:05:51.314Z,13.23
2022-12-06T09:08:18.433Z,12.75
2022-12-06T09:10:45.501Z,13.93
2022-12-06T09:13:12.515Z,10.52
2022-12-06T09:15:39.598Z,9.13
2022-12-06T09:18:06.845Z,7.90
2022-12-06T09:20:33.998Z,8.85
2022-12-06T09:23:01.075Z,8.00
2022-12-06T09:25:28.089Z,5.35
2022-12-06T09:27:55.172Z,6.72
2022-12-06T09:30:22.241Z,7.90
2022-12-06T09:32:49.338Z,6.28
2022-12-06T09:35:19.692Z,5.68
2022-12-06T09:37:49.320Z,5.70
2022-12-06T09:40:31.274Z,5.53
2022-12-06T09:43:14.461Z,6.72
2022-12-06T09:46:00.436Z,8.77
2022-12-06T09:48:35.224Z,7.43
2022-12-06T09:51:24.008Z,8.13
2022-12-06T09:53:54.068Z,7.57
2022-12-06T09:56:38.836Z,7.72
2022-12-06T09:59:32.018Z,11.20
2022-12-06T10:02:48.605Z,7.78
2022-12-06T10:05:15.873Z,5.07
2022-12-06T10:08:10.058Z,7.57
2022-12-06T10:11:15.736Z,5.93
2022-12-06T10:13:46.818Z,7.82
2022-12-06T10:16:29.067Z,12.05
2022-12-06T10:19:20.501Z,7.57
2022-12-06T10:22:13.641Z,7.25
2022-12-06T10:25:03.306Z,5.38
2022-12-06T10:27:37.371Z,6.97
2022-12-06T10:30:06.737Z,5.43
2022-12-06T10:33:03.780Z,7.38
2022-12-06T10:35:48.342Z,6.80
2022-12-06T10:38:28.678Z,6.07
2022-12-06T10:41:01.325Z,7.70
2022-12-06T10:43:53.038Z,6.60
2022-12-06T10:46:49.549Z,5.57
2022-12-06T10:49:25.168Z,4.88
2022-12-06T10:52:04.124Z,7.00
2022-12-06T10:55:07.973Z,6.20
2022-12-06T10:57:48.494Z,6.43
2022-12-06T11:00:19.363Z,4.97
2022-12-06T11:03:10.097Z,5.45
2022-12-06T11:05:52.171Z,8.88
2022-12-06T11:08:27.068Z,7.60
2022-12-06T11:10:54.604Z,5.88
2022-12-06T11:13:42.526Z,4.93
2022-12-06T11:16:24.615Z,6.45
2022-12-06T11:18:51.792Z,6.53
2022-12-06T11:21:31.504Z,7.07
2022-12-06T11:24:08.464Z,5.88
2022-12-06T11:26:41.858Z,5.22
2022-12-06T11:29:13.179Z,5.63
2022-12-06T11:31:43.544Z,4.22
2022-12-06T11:34:27.087Z,3.92
2022-12-06T11:36:59.869Z,5.13
2022-12-06T11:39:27.896Z,5.03
2022-12-06T11:41:56.220Z,4.57
2022-12-06T11:44:25.597Z,7.47
2022-12-06T11:46:57.378Z,4.43
2022-12-06T11:49:27.063Z,5.60
2022-12-06T11:51:54.090Z,5.53
2022-12-06T11:54:24.947Z,4.18
2022-12-06T11:56:52.069Z,5.28
2022-12-06T11:59:28.511Z,6.68
2022-12-06T12:02:03.436Z,5.70
2022-12-06T12:04:44.069Z,5.90
2022-12-06T12:07:11.619Z,7.00
2022-12-06T12:09:47.764Z,4.88
2022-12-06T12:12:17.894Z,5.40
2022-12-06T12:14:49.694Z,3.50
2022-12-06T12:17:30.442Z,4.60
2022-12-06T12:19:58.766Z,6.20
2022-12-06T12:22:42.795Z,9.70
2022-12-06T12:25:31.033Z,6.30
2022-12-06T12:27:59.327Z,3.83
2022-12-06T12:30:29.439Z,5.50
2022-12-06T12:33:05.759Z,7.70
2022-12-06T12:35:40.283Z,5.60
2022-12-06T12:38:10.518Z,5.75
2022-12-06T12:40:52.168Z,5.38
2022-12-06T12:43:24.477Z,5.90
2022-12-06T12:46:11.244Z,5.47
2022-12-06T12:48:40.054Z,7.18
2022-12-06T12:51:31.750Z,5.57
2022-12-06T12:54:18.416Z,5.22
2022-12-06T12:56:45.591Z,5.93
2022-12-06T12:59:15.251Z,4.90
2022-12-06T13:02:05.511Z,5.40
2022-12-06T13:04:43.509Z,4.85
2022-12-06T13:07:11.073Z,5.28
2022-12-06T13:09:48.864Z,7.30
2022-12-06T13:12:47.190Z,5.45
2022-12-06T13:15:23.125Z,5.43
2022-12-06T13:17:59.243Z,5.55
2022-12-06T13:20:28.938Z,6.85
2022-12-06T13:25:24.419Z,4.30
2022-12-06T13:28:00.821Z,3.97
2022-12-06T13:30:31.156Z,4.60
2022-12-06T13:33:00.762Z,3.53
2022-12-06T13:35:35.854Z,4.15
2022-12-06T13:38:26.191Z,6.80
2022-12-06T13:41:01.424Z,7.07
2022-12-06T13:43:28.631Z,5.00
2022-12-06T13:46:07.626Z,4.97
2022-12-06T13:48:51.940Z,5.88
2022-12-06T13:51:30.947Z,9.07
2022-12-06T13:54:06.789Z,5.22
2022-12-06T13:56:33.921Z,4.70
2022-12-06T13:59:15.561Z,6.05
2022-12-06T14:01:50.036Z,3.60
2022-12-06T14:06:55.490Z,6.63
2022-12-06T14:09:23.836Z,4.00
2022-12-06T14:11:50.994Z,5.72
2022-12-06T14:14:22.886Z,5.63
2022-12-06T14:17:03.267Z,4.20
2022-12-06T14:19:46.266Z,4.78
2022-12-06T14:22:24.790Z,5.97
2022-12-06T14:25:14.282Z,4.13
2022-12-06T14:27:45.402Z,5.13
2022-12-06T14:30:25.142Z,5.55
2022-12-06T14:32:54.776Z,4.85
2022-12-06T14:35:23.593Z,7.10
2022-12-06T14:38:06.232Z,4.32
2022-12-06T14:40:56.873Z,4.97
2022-12-06T14:43:26.401Z,6.47
2022-12-06T14:45:53.609Z,8.55
2022-12-06T14:48:21.561Z,6.78
2022-12-06T14:50:49.467Z,7.65
2022-12-06T14:53:29.224Z,8.52
2022-12-06T14:55:57.164Z,7.07
2022-12-06T14:58:32.450Z,6.68
2022-12-06T15:03:34.179Z,10.50
2022-12-06T15:06:16.138Z,14.45
2022-12-06T15:08:47.065Z,17.35
2022-12-06T15:11:34.962Z,23.50
2022-12-06T15:14:22.755Z,18.60
2022-12-06T15:16:59.138Z,15.93
2022-12-06T15:19:27.440Z,16.77
2022-12-06T15:21:54.569Z,17.20
2022-12-06T15:24:23.213Z,14.93
2022-12-06T15:26:50.261Z,10.15
2022-12-06T15:29:17.791Z,11.20
2022-12-06T15:31:52.601Z,11.40
2022-12-06T15:34:23.647Z,14.45
2022-12-06T15:37:03.611Z,10.60
2022-12-06T15:39:37.982Z,8.38
2022-12-06T15:42:16.514Z,10.10
2022-12-06T15:44:48.786Z,13.98
2022-12-06T15:47:17.663Z,11.90
2022-12-06T15:49:45.490Z,7.95
2022-12-06T15:52:18.003Z,10.55
2022-12-06T15:54:45.277Z,13.35
2022-12-06T15:57:12.323Z,11.43
2022-12-06T15:59:39.381Z,11.45
2022-12-06T16:02:16.622Z,9.55
2022-12-06T16:04:44.712Z,12.63
2022-12-06T16:07:13.320Z,10.70
2022-12-06T16:09:40.467Z,7.60
2022-12-06T16:12:07.726Z,8.23
2022-12-06T16:14:34.718Z,9.02
2022-12-06T16:17:01.795Z,10.98
2022-12-06T16:19:48.877Z,9.00
2022-12-06T16:22:15.922Z,12.60
2022-12-06T16:24:43.018Z,11.38
2022-12-06T16:27:10.368Z,8.07
2022-12-06T16:29:37.427Z,10.57
2022-12-06T16:32:04.574Z,10.98
2022-12-06T16:34:31.663Z,10.65
2022-12-06T16:37:03.367Z,11.75
2022-12-06T16:39:31.751Z,11.50
2022-12-06T16:41:58.758Z,13.23
2022-12-06T16:44:26.178Z,14.15
2022-12-06T16:46:53.678Z,16.80
2022-12-06T16:52:14.481Z,15.25
2022-12-06T16:54:42.280Z,14.40
2022-12-06T16:57:11.358Z,15.73
2022-12-06T16:59:38.706Z,14.95
2022-12-06T17:02:18.306Z,14.85
2022-12-06T17:04:45.469Z,12.88
2022-12-06T17:07:12.573Z,14.82
2022-12-06T17:09:39.834Z,18.83
2022-12-06T17:12:12.654Z,18.60
2022-12-06T17:14:40.165Z,15.43
2022-12-06T17:17:07.381Z,14.57
2022-12-06T17:19:37.905Z,12.77
2022-12-06T17:22:07.340Z,15.65
2022-12-06T17:24:34.713Z,10.25
2022-12-06T17:27:01.814Z,11.95
2022-12-06T17:29:28.970Z,12.20
2022-12-06T17:31:56.273Z,12.57
2022-12-06T17:34:25.686Z,13.27
2022-12-06T17:36:53.011Z,13.65
2022-12-06T17:39:20.851Z,17.40
2022-12-06T17:42:06.819Z,15.07
2022-12-06T17:44:34.169Z,15.80
2022-12-06T17:47:01.531Z,16.00
2022-12-06T17:49:28.939Z,13.50
2022-12-06T17:51:56.470Z,14.00
2022-12-06T17:54:23.799Z,11.77
2022-12-06T17:56:52.286Z,14.25
2022-12-06T17:59:23.408Z,11.43
2022-12-06T18:02:14.196Z,13.13
2022-12-06T18:04:38.101Z,11.48
2022-12-06T18:07:05.152Z,14.07
2022-12-06T18:09:32.195Z,11.70
2022-12-06T18:12:01.037Z,15.32
2022-12-06T18:14:28.594Z,15.20
2022-12-06T18:16:55.857Z,12.88
2022-12-06T18:19:23.214Z,17.55
2022-12-06T18:21:52.284Z,9.57
2022-12-06T18:24:22.130Z,8.18
2022-12-06T18:26:50.399Z,8.98
2022-12-06T18:29:19.441Z,7.97
2022-12-06T18:31:46.775Z,10.77
2022-12-06T18:34:14.065Z,7.35
2022-12-06T18:36:41.251Z,8.90
2022-12-06T18:39:14.910Z,7.70
2022-12-06T18:41:43.885Z,14.43
2022-12-06T18:44:11.605Z,9.05
2022-12-06T18:46:39.239Z,6.72
2022-12-06T18:49:07.134Z,9.30
2022-12-06T18:51:35.265Z,8.25
2022-12-06T18:54:04.488Z,6.20
2022-12-06T18:59:00.224Z,10.40
2022-12-06T19:01:32.202Z,8.70
2022-12-06T19:04:00.880Z,6.90
2022-12-06T19:06:33.651Z,4.95
2022-12-06T19:09:02.335Z,6.85
2022-12-06T19:11:29.461Z,7.90
2022-12-06T19:13:57.258Z,7.00
2022-12-06T19:18:55.550Z,7.70
2022-12-06T19:21:22.741Z,6.80
2022-12-06T19:23:54.678Z,6.03
2022-12-06T19:26:21.898Z,6.93
2022-12-06T19:28:48.958Z,7.97
2022-12-06T19:31:16.453Z,8.88
2022-12-06T19:33:44.452Z,7.60
2022-12-06T19:36:22.796Z,8.10
2022-12-06T19:38:55.643Z,8.43
2022-12-06T19:41:22.795Z,7.03
2022-12-06T19:44:08.489Z,7.50
2022-12-06T19:46:35.654Z,8.70
2022-12-06T19:49:05.643Z,7.22
2022-12-06T19:51:35.427Z,7.50
2022-12-06T19:54:02.795Z,7.35
2022-12-06T19:56:30.771Z,10.27
2022-12-06T19:58:58.262Z,8.20
2022-12-06T20:01:26.508Z,8.77
2022-12-06T20:03:54.517Z,9.20
2022-12-06T20:06:23.170Z,10.73
2022-12-06T20:08:50.609Z,11.43
2022-12-06T20:11:39.028Z,11.40
2022-12-06T20:14:08.754Z,11.20
2022-12-06T20:16:36.883Z,7.40
2022-12-06T20:19:07.580Z,7.32
2022-12-06T20:21:34.992Z,5.40
2022-12-06T20:24:02.312Z,6.80
2022-12-06T20:26:29.955Z,9.27
2022-12-06T20:28:57.940Z,9.63
2022-12-06T20:31:27.100Z,9.98
2022-12-06T20:33:58.225Z,9.43
2022-12-06T20:36:25.437Z,8.18
2022-12-06T20:38:53.351Z,8.07
2022-12-06T20:41:22.754Z,6.03
2022-12-06T20:46:19.893Z,8.73
2022-12-06T20:48:47.073Z,8.40
2022-12-06T20:51:18.425Z,8.18
2022-12-06T20:53:47.527Z,7.70
2022-12-06T20:56:19.374Z,7.20
2022-12-06T20:58:52.291Z,10.43
2022-12-06T21:01:20.945Z,6.60
2022-12-06T21:03:48.370Z,9.30
2022-12-06T21:06:15.628Z,7.95
2022-12-06T21:08:42.902Z,6.93
2022-12-06T21:11:25.475Z,9.25
2022-12-06T21:13:53.701Z,7.30
2022-12-06T21:16:22.649Z,11.70
2022-12-06T21:18:54.964Z,8.85
2022-12-06T21:21:23.825Z,11.88
2022-12-06T21:23:50.866Z,13.25
2022-12-06T21:26:18.013Z,21.10
2022-12-06T21:28:45.183Z,11.23
2022-12-06T21:31:12.437Z,14.88
2022-12-06T21:33:39.557Z,14.32
2022-12-06T21:36:07.086Z,10.65
2022-12-06T21:38:34.678Z,12.80
2022-12-06T21:41:06.384Z,13.02
2022-12-06T21:43:34.477Z,8.82
2022-12-06T21:46:15.341Z,11.07
2022-12-06T21:48:42.777Z,7.90
2022-12-06T21:51:11.690Z,7.70
2022-12-06T21:53:39.032Z,5.57
2022-12-06T21:56:10.512Z,8.02
2022-12-06T21:58:37.728Z,6.18
2022-12-06T22:01:09.226Z,6.10
2022-12-06T22:03:36.403Z,5.82
2022-12-06T22:06:05.242Z,5.65
2022-12-06T22:08:32.637Z,5.35
2022-12-06T22:10:59.747Z,7.30
2022-12-06T22:13:26.773Z,4.55
2022-12-06T22:15:53.909Z,6.80
2022-12-06T22:18:21.084Z,5.18
2022-12-06T22:21:02.910Z,7.78
2022-12-06T22:23:30.482Z,5.43
2022-12-06T22:25:58.153Z,6.53
2022-12-06T22:28:25.424Z,4.70
2022-12-06T22:30:52.567Z,5.57
2022-12-06T22:33:20.558Z,7.40
2022-12-06T22:35:47.638Z,7.22
2022-12-06T22:38:14.863Z,4.50
2022-12-06T22:40:41.969Z,5.55
2022-12-06T22:43:09.116Z,6.25
2022-12-06T22:45:36.206Z,7.25
2022-12-06T22:48:03.382Z,6.38
2022-12-06T22:50:30.392Z,5.28
2022-12-06T22:52:57.526Z,4.25
2022-12-06T22:55:24.603Z,6.28
2022-12-06T22:57:51.724Z,7.07
2022-12-06T23:00:19.368Z,5.72
2022-12-06T23:02:46.619Z,6.05
2022-12-06T23:05:13.849Z,4.97
2022-12-06T23:07:41.820Z,6.47
2022-12-06T23:10:09.488Z,4.38
2022-12-06T23:12:39.678Z,6.60
2022-12-06T23:15:07.310Z,6.28
2022-12-06T23:17:34.524Z,5.45
2022-12-06T23:20:01.857Z,6.05
2022-12-06T23:22:32.309Z,8.88
2022-12-06T23:24:59.506Z,8.77
2022-12-06T23:27:26.534Z,6.13
2022-12-06T23:29:53.786Z,9.80
2022-12-06T23:32:20.850Z,9.13
2022-12-06T23:34:47.939Z,7.95
2022-12-06T23:37:14.968Z,7.22
2022-12-06T23:39:42.076Z,9.75
2022-12-06T23:42:09.178Z,10.60
2022-12-06T23:44:37.135Z,9.13
2022-12-06T23:47:04.443Z,8.45
2022-12-06T23:49:31.657Z,4.63
2022-12-06T23:51:58.821Z,3.97
2022-12-06T23:54:25.942Z,4.85
2022-12-06T23:56:53.015Z,4.57
2022-12-06T23:59:20.087Z,5.35
